AirNav   ProFlight Series 2 Aviation Headset
 
 1082 users online  

PS16 Holy Redeemer Hospital Heliport
Philadelphia, Pennsylvania, USA

GOING TO PHILADELPHIA?


FAA INFORMATION EFFECTIVE 18 JUNE 2020

Location

FAA Identifier: PS16
Lat/Long: 40-06-42.8000N 075-04-52.8000W
40-06.713333N 075-04.880000W
40.1118889,-75.0813333
(estimated)
Elevation: 200 ft. / 61 m (estimated)
Variation: 12W (1985)
From city: 10 miles NE of PHILADELPHIA, PA
Time zone: UTC -4 (UTC -5 during Standard Time)
Zip code: 19046

Heliport Operations

Heliport use: Private use, MEDICAL USE.
Activation date: 06/1983
Control tower: no
ARTCC: NEW YORK CENTER
FSS: WILLIAMSPORT FLIGHT SERVICE STATION
Attendance: CONTINUOUS
Wind indicator: yes
Segmented circle: no

Heliport Communications

WX ASOS at PNE (4 nm SE): 121.15 (215-677-0146)
WX AWOS-3 at LOM (9 nm W): 118.925 (215-646-1068)
WX ASOS at DYL (13 nm N): 118.875 (215-345-0392)
WX ASOS at VAY (15 nm SE): 119.325 (609-267-1176)
WX ASOS at TTN (16 nm NE): 126.775 (609-538-8690)
WX ASOS at PHL (16 nm SW): PHONE 215-492-9617
WX AWOS-3 at CKZ (19 nm NW): 126.325 (215-257-7291)

Nearby radio navigation aids

VOR radial/distance  VOR name  Freq  Var
ARDr233/11.6YARDLEY VOR/DME108.2010W
PTWr116/22.9POTTSTOWN VORTAC116.5009W
GXUr297/23.1MC GUIRE VORTAC110.6012W
RBVr269/27.4ROBBINSVILLE VORTAC113.8010W
MXEr076/29.5MODENA VORTAC113.2009W
OODr030/30.3WOODSTOWN VORTAC112.8010W
SBJr219/32.3SOLBERG VOR/DME112.9010W
CYNr311/34.7COYLE VORTAC113.4010W
VCNr001/34.9CEDAR LAKE VOR/DME115.2010W
DQOr053/35.5DUPONT VORTAC114.0010W
ETXr145/39.4EAST TEXAS VOR/DME110.2009W

 
NDB name  Hdg/Dist  Freq  Var  ID
AMBLER107/9.427512WING .. -. --.
LAKEHURST288/34.539611WNEL -. . .-..

Heliport Services

Runway Information

Helipad H1

Dimensions: 80 x 80 ft. / 24 x 24 m
Surface: concrete, in good condition
Runway edge lights: PERI
Latitude: 40-06.713333N
Longitude: 075-04.880000W
Elevation: 200.0 ft.
Traffic pattern: leftleft

Heliport Ownership and Management from official FAA records

Ownership: Privately-owned
Owner: HOLY REDEEMER HOSPITAL
1648 HUNTINGDON PIKE
MEADOWBROOK, PA 19046
Phone (609) 833-2244
AND MEDICAL CENTER
Manager: MICHAEL GREEN
1648 HUNTINGDON PIKE
MEADOWBROOK, PA 19046
Phone (609) 833-2244
MANAGER CELL 609-892-1266

Additional Remarks

FOR CD CTC PHILADELPHIA APCH AT 800-354-9884.

Instrument Procedures

There are no published instrument procedures at PS16.

Some nearby airports with instrument procedures:

KPNE - Northeast Philadelphia Airport (4 nm SE)
KLOM - Wings Field Airport (9 nm W)
KDYL - Doylestown Airport (13 nm N)
KVAY - South Jersey Regional Airport (15 nm SE)
KTTN - Trenton Mercer Airport (16 nm NE)
KPHL - Philadelphia International Airport (16 nm SW)
N14 - Flying W Airport (16 nm SE)
N10 - Perkiomen Valley Airport (17 nm W)
KCKZ - Pennridge Airport (19 nm NW)
 
Loc | Ops | Rwys | IFR | FBO | Links
Com | Nav | Svcs | Stats | Notes
Area around PS16 (Holy Redeemer Hospital Heliport)
 
Road maps at: MapQuest Bing Google
 
Aerial photo
No photo
 
Sectional chart

 
Airport distance calculator
Flying to Holy Redeemer Hospital Heliport? Find the distance to fly.

From to PS16

Sunrise and sunset
Times for 06-Jul-2020
 Local
(UTC-4)
 Zulu
(UTC)
Morning civil twilight05:0709:07
Sunrise05:3909:39
Sunset20:3100:31
Evening civil twilight21:0401:04

Current date and time
Zulu (UTC)  06-Jul-2020 22:34:50
Local (UTC-4)  06-Jul-2020 18:34:50
 
METAR
KPNE 
3nm SE 
062154Z AUTO 07005KT 10SM CLR 22/20 A3005 RMK AO2 LTG DSNT ALQDS RAB15E24 SLP173 P0000 T02170200
KLOM 
9nm W 
062215Z AUTO 07005KT 10SM CLR 21/20 A3005 RMK AO2 P0002 T02120203
KDYL 
13nm N 
062210Z AUTO 00000KT 10SM FEW095 SCT120 22/19 A3006 RMK AO2 LTG DSNT SW AND W T02170189
KVAY 
16nm SE 
ASOS 119.325 609-267-1176
062154Z AUTO 10006G17KT 10SM -RA FEW055 SCT100 BKN120 21/18 A3003 RMK AO2 LTG DSNT SE-W SLP169 P0006 T02110178
KTTN 
16nm NE 
ASOS 133.70 609-538-8690
062153Z 14005KT 10SM CLR 24/18 A3004 RMK AO2 LTG DSNT S AND NW SLP166 T02390178
KPHL 
16nm SW 
062154Z 18009KT 10SM -TSRA SCT060CB BKN110 BKN220 22/19 A3004 RMK AO2 LTG DSNT ALQDS RAB01 SLP173 OCNL LTGICCG VC SE TS VC SE MOV SE P0002 T02170189
KCKZ 
19nm NW 
062215Z AUTO 22003KT 6SM VCTS -RA FEW036 BKN044 BKN055 21/21 A3008 RMK AO2 LTG DSNT ALQDS P0001
TAF
KPNE 
3nm SE 
062034Z 0621/0718 21010KT 6SM -SHRA VCTS SCT020CB BKN090 TEMPO 0621/0623 4SM -SHRA BR BKN025 OVC040 FM062300 VRB04KT P6SM VCSH BKN040 BKN100 FM070200 VRB02KT P6SM SCT100 FM070700 VRB02KT 4SM BR SCT010
KTTN 
16nm NE 
062046Z 0621/0718 12012KT 6SM -SHRA SCT025 BKN100 TEMPO 0621/0623 4SM SHRA BKN025 OVC040 FM062300 13006KT P6SM BKN040 BKN150 FM070200 VRB03KT P6SM SCT080 FM070700 VRB02KT 4SM BR SCT012 FM071300 18005KT P6SM SCT200
KPHL 
16nm SW 
062041Z 0621/0724 05010KT 6SM SHRA VCTS SCT025CB OVC080 TEMPO 0621/0623 2SM +TSRA BKN025CB FM062300 16007KT P6SM BKN050 BKN200 FM070200 VRB02KT P6SM SCT200 FM070600 VRB02KT 4SM BR SCT010 FM071500 18008KT P6SM SCT250
NOTAMs
Click for the latest NOTAMs
NOTAMs are issued by the DoD/FAA and will open in a separate window not controlled by AirNav.

 

 
 

Would you like to see your business listed on this page?

 If your business provides an interesting product or service to pilots, flight crews, aircraft, or users of the Holy Redeemer Hospital Heliport, you should consider listing it here.  To start the listing process, click on the button below
 
Add a business
 

Other Pages about Holy Redeemer Hospital Heliport

Update a link
 
Copyright © AirNav, LLC. All rights reserved. Privacy Policy  Contact